createdAt,value
2023-01-29T07:01:01.789Z,9.43
2023-01-29T07:02:04.816Z,13.38
2023-01-29T07:03:07.668Z,10.98
2023-01-29T07:04:10.326Z,12.47
2023-01-29T07:05:13.104Z,9.72
2023-01-29T07:06:15.972Z,8.52
2023-01-29T07:07:18.564Z,8.52
2023-01-29T07:08:21.412Z,10.89
2023-01-29T07:09:24.295Z,10.62
2023-01-29T07:10:26.974Z,9.95
2023-01-29T07:11:29.640Z,9.18
2023-01-29T07:12:32.227Z,8.18
2023-01-29T07:13:35.079Z,7.52
2023-01-29T07:14:38.081Z,9.25
2023-01-29T07:15:40.823Z,8.79
2023-01-29T07:16:43.647Z,7.41
2023-01-29T07:17:46.281Z,8.22
2023-01-29T07:18:49.040Z,8.03
2023-01-29T07:19:51.918Z,9.36
2023-01-29T07:20:54.994Z,9.79
2023-01-29T07:21:57.571Z,8.52
2023-01-29T07:23:00.224Z,8.65
2023-01-29T07:24:03.127Z,7.94
2023-01-29T07:25:06.203Z,8.38
2023-01-29T07:26:09.075Z,7.81
2023-01-29T07:27:11.929Z,8.82
2023-01-29T07:28:14.504Z,9.15
2023-01-29T07:29:17.169Z,7.49
2023-01-29T07:30:19.846Z,8.43
2023-01-29T07:31:22.607Z,9.44
2023-01-29T07:32:25.605Z,8.22
2023-01-29T07:33:28.257Z,10.32
2023-01-29T07:34:31.069Z,8.45
2023-01-29T07:35:33.593Z,9.12
2023-01-29T07:36:36.266Z,9.38
2023-01-29T07:37:39.038Z,8.87
2023-01-29T07:38:42.324Z,9.09
2023-01-29T07:39:45.418Z,9.12
2023-01-29T07:40:48.086Z,9.21
2023-01-29T07:41:50.942Z,7.85
2023-01-29T07:42:53.614Z,7.93
2023-01-29T07:43:57.103Z,9.71
2023-01-29T07:45:00.186Z,8.69
2023-01-29T07:46:02.898Z,9.68
2023-01-29T07:47:05.442Z,10.17
2023-01-29T07:48:08.190Z,7.05
2023-01-29T07:49:12.333Z,7.79
2023-01-29T07:50:15.360Z,8.44
2023-01-29T07:51:18.455Z,8.39
2023-01-29T07:52:22.488Z,8.02
2023-01-29T07:53:25.551Z,9.29
2023-01-29T07:54:28.102Z,8.61
2023-01-29T07:55:30.718Z,8.73
2023-01-29T07:56:33.555Z,7.78
2023-01-29T07:57:36.340Z,9.02
2023-01-29T07:58:39.425Z,12.14
2023-01-29T07:59:42.063Z,6.94
2023-01-29T08:00:44.924Z,5.93
2023-01-29T08:01:47.513Z,7.50
2023-01-29T08:02:50.391Z,7.55
2023-01-29T08:03:53.391Z,6.16
2023-01-29T08:04:56.032Z,7.13
2023-01-29T08:05:58.912Z,10.16
2023-01-29T08:07:01.879Z,7.45
2023-01-29T08:08:07.374Z,8.15
2023-01-29T08:09:09.090Z,8.62
2023-01-29T08:10:11.534Z,8.71
2023-01-29T08:11:14.440Z,7.18
2023-01-29T08:12:19.098Z,7.70
2023-01-29T08:13:22.007Z,8.39
2023-01-29T08:14:24.887Z,7.84
2023-01-29T08:15:27.649Z,8.07
2023-01-29T08:16:30.345Z,8.38
2023-01-29T08:17:33.227Z,7.90
2023-01-29T08:18:35.977Z,9.93
2023-01-29T08:19:39.242Z,8.15
2023-01-29T08:20:42.128Z,8.03
2023-01-29T08:21:45.000Z,10.41
2023-01-29T08:22:47.934Z,8.73
2023-01-29T08:23:50.574Z,8.39
2023-01-29T08:24:54.106Z,8.92
2023-01-29T08:25:57.711Z,7.36
2023-01-29T08:27:00.598Z,9.19
2023-01-29T08:28:03.262Z,11.34
2023-01-29T08:29:05.937Z,10.80
2023-01-29T08:30:09.057Z,11.82
2023-01-29T08:31:12.009Z,14.05
2023-01-29T08:32:14.868Z,11.38
2023-01-29T08:33:21.525Z,12.23
2023-01-29T08:34:22.136Z,13.09
2023-01-29T08:35:25.658Z,14.54
2023-01-29T08:36:28.411Z,14.27
2023-01-29T08:37:31.389Z,14.33
2023-01-29T08:38:34.283Z,12.33
2023-01-29T08:39:37.020Z,12.55
2023-01-29T08:40:39.910Z,13.62
2023-01-29T08:41:42.885Z,12.79
2023-01-29T08:42:45.579Z,13.92
2023-01-29T08:43:48.131Z,12.52
2023-01-29T08:44:51.101Z,11.60
2023-01-29T08:45:53.909Z,12.69
2023-01-29T08:46:56.558Z,12.47
2023-01-29T08:47:59.321Z,14.12
2023-01-29T08:49:02.211Z,12.81
2023-01-29T08:50:04.765Z,12.42
2023-01-29T08:51:07.845Z,12.92
2023-01-29T08:52:10.920Z,14.65
2023-01-29T08:53:13.803Z,14.65
2023-01-29T08:54:16.458Z,14.38
2023-01-29T08:55:19.466Z,14.31
2023-01-29T08:56:22.436Z,16.60
2023-01-29T08:57:25.222Z,15.05
2023-01-29T08:58:27.968Z,14.70
2023-01-29T08:59:30.639Z,13.88
2023-01-29T09:00:33.494Z,13.84
2023-01-29T09:01:36.492Z,13.75
2023-01-29T09:02:39.290Z,16.18
2023-01-29T09:03:41.924Z,14.87
2023-01-29T09:04:44.830Z,14.21
2023-01-29T09:05:47.789Z,15.09
2023-01-29T09:06:50.969Z,16.38
2023-01-29T09:07:54.332Z,15.95
2023-01-29T09:08:57.114Z,15.71
2023-01-29T09:09:59.906Z,15.81
2023-01-29T09:11:02.563Z,14.55
2023-01-29T09:12:05.428Z,15.17
2023-01-29T09:13:08.238Z,15.38
2023-01-29T09:14:10.878Z,17.30
2023-01-29T09:15:13.647Z,14.81
2023-01-29T09:16:16.340Z,13.32
2023-01-29T09:17:19.107Z,14.18
2023-01-29T09:18:21.658Z,16.53
2023-01-29T09:19:24.348Z,17.38
2023-01-29T09:20:26.898Z,16.08
2023-01-29T09:21:29.578Z,16.62
2023-01-29T09:22:32.343Z,14.86
2023-01-29T09:23:35.037Z,14.71
2023-01-29T09:24:37.801Z,16.62
2023-01-29T09:25:40.639Z,17.42
2023-01-29T09:26:43.512Z,16.10
2023-01-29T09:27:46.816Z,15.76
2023-01-29T09:28:49.593Z,16.03
2023-01-29T09:29:52.356Z,14.28
2023-01-29T09:30:55.156Z,15.75
2023-01-29T09:31:58.149Z,14.14
2023-01-29T09:33:01.395Z,15.42
2023-01-29T09:34:04.059Z,17.25
2023-01-29T09:35:06.737Z,19.88
2023-01-29T09:36:09.717Z,17.10
2023-01-29T09:37:12.710Z,18.98
2023-01-29T09:38:15.876Z,18.48
2023-01-29T09:39:18.442Z,17.27
2023-01-29T09:40:20.998Z,15.89
2023-01-29T09:41:23.571Z,17.42
2023-01-29T09:42:26.356Z,17.14
2023-01-29T09:43:29.341Z,16.94
2023-01-29T09:44:32.188Z,16.98
2023-01-29T09:45:34.967Z,16.55
2023-01-29T09:46:37.741Z,21.83
2023-01-29T09:47:40.819Z,17.52
2023-01-29T09:48:44.022Z,15.33
2023-01-29T09:49:46.667Z,17.34
2023-01-29T09:50:49.652Z,16.92
2023-01-29T09:51:52.529Z,16.72
2023-01-29T09:52:55.696Z,17.37
2023-01-29T09:53:58.997Z,17.45
2023-01-29T09:55:01.605Z,18.95
2023-01-29T09:56:04.228Z,18.28
2023-01-29T09:57:06.855Z,15.26
2023-01-29T09:58:09.632Z,14.39
2023-01-29T09:59:12.554Z,17.62
2023-01-29T10:00:15.110Z,16.76
2023-01-29T10:01:17.628Z,17.88
2023-01-29T10:02:20.566Z,19.48
2023-01-29T10:03:23.219Z,17.83
2023-01-29T10:04:25.861Z,18.08
2023-01-29T10:05:28.469Z,15.72
2023-01-29T10:06:31.138Z,16.72
2023-01-29T10:07:34.224Z,17.02
2023-01-29T10:08:36.877Z,16.92
2023-01-29T10:09:39.546Z,13.17
2023-01-29T10:10:42.427Z,13.08
2023-01-29T10:11:45.097Z,13.18
2023-01-29T10:12:47.658Z,12.43
2023-01-29T10:13:50.479Z,11.58
2023-01-29T10:14:53.622Z,12.97
2023-01-29T10:15:56.518Z,13.87
2023-01-29T10:16:59.386Z,12.55
2023-01-29T10:18:02.342Z,11.70
2023-01-29T10:19:05.409Z,12.73
2023-01-29T10:20:08.495Z,10.02
2023-01-29T10:21:11.525Z,10.19
2023-01-29T10:22:13.936Z,12.42
2023-01-29T10:23:16.830Z,13.28
2023-01-29T10:24:19.808Z,13.10
2023-01-29T10:25:22.683Z,16.55
2023-01-29T10:26:25.774Z,13.83
2023-01-29T10:27:28.262Z,13.12
2023-01-29T10:28:30.890Z,10.23
2023-01-29T10:29:33.759Z,9.55
2023-01-29T10:30:36.670Z,10.65
2023-01-29T10:31:39.509Z,12.28
2023-01-29T10:32:42.482Z,8.68
2023-01-29T10:34:02.800Z,9.05
2023-01-29T10:34:50.146Z,10.07
2023-01-29T10:35:55.319Z,10.66
2023-01-29T10:36:57.611Z,7.67
2023-01-29T10:38:01.059Z,8.36
2023-01-29T10:39:03.940Z,11.40
2023-01-29T10:40:07.221Z,12.80
2023-01-29T10:41:10.305Z,8.34
2023-01-29T10:42:13.283Z,7.09
2023-01-29T10:43:16.460Z,6.63
2023-01-29T10:44:19.266Z,8.12
2023-01-29T10:45:21.808Z,7.54
2023-01-29T10:46:24.937Z,7.02
2023-01-29T10:47:30.258Z,6.74
2023-01-29T10:48:32.775Z,8.63
2023-01-29T10:49:35.852Z,8.92
2023-01-29T10:50:38.740Z,6.84
2023-01-29T10:51:42.737Z,7.58
2023-01-29T10:52:46.212Z,8.23
2023-01-29T10:53:49.440Z,9.84
2023-01-29T10:54:52.297Z,7.75
2023-01-29T10:55:55.038Z,7.05
2023-01-29T10:56:58.871Z,6.47
2023-01-29T10:58:03.008Z,6.71
2023-01-29T10:59:06.236Z,6.84
2023-01-29T11:00:09.542Z,8.25
2023-01-29T11:01:12.821Z,7.03
2023-01-29T11:02:16.014Z,7.19
2023-01-29T11:03:27.654Z,5.95
2023-01-29T11:04:23.166Z,6.26
2023-01-29T11:05:26.691Z,5.63
2023-01-29T11:06:29.548Z,7.29
2023-01-29T11:07:32.705Z,6.82
2023-01-29T11:08:35.806Z,6.94
2023-01-29T11:09:39.303Z,6.87
2023-01-29T11:10:41.974Z,6.74
2023-01-29T11:11:44.727Z,6.66
2023-01-29T11:12:48.097Z,8.47
2023-01-29T11:13:50.969Z,6.68
2023-01-29T11:14:54.370Z,6.48
2023-01-29T11:15:57.352Z,6.02
2023-01-29T11:17:00.741Z,6.20
2023-01-29T11:18:04.086Z,4.86
2023-01-29T11:19:06.988Z,5.12
2023-01-29T11:20:09.757Z,4.29
2023-01-29T11:21:12.643Z,5.75
2023-01-29T11:22:15.434Z,5.80
2023-01-29T11:23:18.603Z,5.67
2023-01-29T11:24:21.457Z,5.76
2023-01-29T11:25:24.472Z,6.95
2023-01-29T11:26:27.507Z,5.98
2023-01-29T11:27:30.322Z,5.35
2023-01-29T11:28:33.773Z,4.41
2023-01-29T11:29:36.668Z,5.18
2023-01-29T11:30:39.623Z,5.70
2023-01-29T11:31:42.747Z,5.12
2023-01-29T11:32:46.097Z,5.25
2023-01-29T11:33:49.247Z,8.05
2023-01-29T11:34:51.964Z,6.13
2023-01-29T11:35:54.931Z,6.37
2023-01-29T11:36:58.008Z,8.02
2023-01-29T11:38:01.112Z,7.02
2023-01-29T11:39:04.580Z,6.68
2023-01-29T11:40:07.866Z,7.26
2023-01-29T11:41:11.154Z,5.63
2023-01-29T11:42:14.911Z,5.52
2023-01-29T11:43:18.730Z,5.40
2023-01-29T11:44:22.008Z,8.05
2023-01-29T11:45:24.996Z,8.59
2023-01-29T11:46:27.851Z,7.45
2023-01-29T11:47:30.549Z,7.20
2023-01-29T11:48:33.434Z,7.88
2023-01-29T11:49:36.345Z,7.64
2023-01-29T11:50:39.085Z,6.33
2023-01-29T11:51:42.146Z,6.44
2023-01-29T11:52:45.016Z,6.42
2023-01-29T11:53:47.794Z,7.00
2023-01-29T11:54:50.674Z,6.46
2023-01-29T11:55:53.455Z,6.02
2023-01-29T11:56:56.116Z,8.99
2023-01-29T11:57:59.128Z,6.19
2023-01-29T11:59:01.979Z,6.74
2023-01-29T12:00:04.884Z,6.18
2023-01-29T12:01:07.521Z,6.60
2023-01-29T12:02:10.204Z,7.26
2023-01-29T12:03:13.250Z,7.12
2023-01-29T12:04:16.258Z,6.52
2023-01-29T12:05:19.617Z,6.73
2023-01-29T12:06:22.526Z,7.28
2023-01-29T12:07:25.724Z,8.20
2023-01-29T12:08:28.559Z,9.21
2023-01-29T12:09:32.025Z,6.84
2023-01-29T12:10:35.570Z,8.24
2023-01-29T12:11:38.514Z,8.82
2023-01-29T12:12:41.899Z,7.22
2023-01-29T12:13:44.974Z,7.41
2023-01-29T12:14:47.858Z,7.77
2023-01-29T12:15:53.200Z,8.24
2023-01-29T12:16:55.476Z,8.31
2023-01-29T12:17:58.631Z,9.74
2023-01-29T12:19:01.618Z,7.24
2023-01-29T12:20:04.491Z,7.63
2023-01-29T12:21:07.572Z,7.42
2023-01-29T12:22:10.757Z,7.85
2023-01-29T12:23:14.132Z,6.36
2023-01-29T12:24:17.432Z,8.14
2023-01-29T12:25:20.920Z,7.35
2023-01-29T12:26:24.185Z,7.41
2023-01-29T12:27:27.261Z,7.79
2023-01-29T12:28:30.584Z,8.62
2023-01-29T12:29:33.525Z,6.46
2023-01-29T12:30:36.308Z,7.84
2023-01-29T12:31:39.724Z,6.05
2023-01-29T12:32:42.691Z,5.69
2023-01-29T12:33:45.438Z,7.66
2023-01-29T12:34:48.659Z,6.52
2023-01-29T12:35:51.495Z,6.13
2023-01-29T12:36:54.468Z,7.08
2023-01-29T12:37:57.373Z,6.63
2023-01-29T12:39:00.643Z,7.06
2023-01-29T12:40:04.016Z,6.32
2023-01-29T12:41:07.280Z,6.85
2023-01-29T12:42:10.881Z,6.35
2023-01-29T12:43:14.341Z,6.86
2023-01-29T12:44:17.168Z,8.14
2023-01-29T12:45:20.308Z,7.14
2023-01-29T12:46:23.251Z,7.92
2023-01-29T12:47:26.474Z,6.47
2023-01-29T12:48:29.466Z,6.94
2023-01-29T12:49:32.340Z,6.87
2023-01-29T12:50:35.334Z,5.73
2023-01-29T12:51:38.196Z,6.45
2023-01-29T12:52:41.050Z,6.50
2023-01-29T12:53:44.538Z,5.40
2023-01-29T12:54:47.466Z,6.65
2023-01-29T12:55:50.412Z,7.94
2023-01-29T12:56:53.517Z,5.91
2023-01-29T12:57:56.870Z,6.65
2023-01-29T12:58:59.956Z,6.56
2023-01-29T13:00:02.836Z,6.35
2023-01-29T13:01:06.030Z,6.36
2023-01-29T13:02:09.288Z,8.53
2023-01-29T13:03:12.406Z,8.76
2023-01-29T13:04:15.329Z,6.73
2023-01-29T13:05:18.626Z,5.89
2023-01-29T13:06:21.945Z,7.04
2023-01-29T13:07:24.827Z,7.47
2023-01-29T13:08:28.109Z,7.28
2023-01-29T13:09:31.048Z,8.08
2023-01-29T13:10:34.441Z,6.10
2023-01-29T13:11:37.517Z,5.18
2023-01-29T13:12:40.587Z,6.93
2023-01-29T13:13:44.291Z,6.99
2023-01-29T13:14:47.353Z,6.56
2023-01-29T13:15:50.550Z,7.44
2023-01-29T13:16:53.747Z,6.40
2023-01-29T13:17:57.005Z,7.51
2023-01-29T13:19:00.213Z,5.86
2023-01-29T13:20:03.281Z,9.08
2023-01-29T13:21:06.365Z,8.01
2023-01-29T13:22:09.509Z,5.87
2023-01-29T13:23:12.521Z,6.44
2023-01-29T13:24:15.822Z,5.38
2023-01-29T13:25:18.685Z,4.75
2023-01-29T13:26:21.559Z,6.56
2023-01-29T13:27:24.916Z,5.42
2023-01-29T13:28:27.753Z,7.23
2023-01-29T13:29:31.391Z,5.19
2023-01-29T13:30:34.708Z,6.38
2023-01-29T13:31:38.114Z,6.75
2023-01-29T13:32:40.980Z,4.18
2023-01-29T13:33:44.152Z,5.01
2023-01-29T13:34:47.459Z,4.72
2023-01-29T13:35:50.800Z,5.24
2023-01-29T13:36:53.466Z,6.45
2023-01-29T13:37:56.841Z,6.96
2023-01-29T13:38:59.742Z,4.13
2023-01-29T13:40:02.811Z,5.25
2023-01-29T13:41:05.796Z,4.27
2023-01-29T13:42:08.883Z,6.31
2023-01-29T13:43:12.549Z,5.45
2023-01-29T13:44:15.932Z,4.65
2023-01-29T13:45:19.290Z,5.16
2023-01-29T13:46:22.820Z,6.34
2023-01-29T13:47:25.599Z,4.82
2023-01-29T13:48:28.681Z,4.81
2023-01-29T13:49:31.813Z,4.07
2023-01-29T13:50:34.657Z,5.31
2023-01-29T13:51:37.548Z,5.44
2023-01-29T13:52:40.823Z,5.44
2023-01-29T13:53:43.475Z,6.08
2023-01-29T13:54:46.532Z,4.71
2023-01-29T13:55:49.734Z,4.76
2023-01-29T13:56:53.345Z,6.13
2023-01-29T13:57:56.557Z,4.43
2023-01-29T13:58:59.697Z,6.48
2023-01-29T14:00:02.612Z,5.60
2023-01-29T14:01:05.619Z,4.73
2023-01-29T14:02:08.282Z,4.16
2023-01-29T14:03:10.539Z,4.58
2023-01-29T14:04:12.824Z,5.11
2023-01-29T14:05:15.642Z,4.86
2023-01-29T14:06:18.367Z,4.58
2023-01-29T14:07:20.851Z,3.74
2023-01-29T14:08:23.325Z,5.25
2023-01-29T14:09:25.900Z,4.40
2023-01-29T14:10:28.402Z,4.33
2023-01-29T14:11:31.103Z,6.08
2023-01-29T14:12:33.618Z,5.22
2023-01-29T14:13:35.880Z,5.24
2023-01-29T14:14:38.081Z,5.57
2023-01-29T14:15:40.344Z,3.86
2023-01-29T14:16:42.847Z,4.36
2023-01-29T14:17:45.098Z,5.08
2023-01-29T14:18:47.304Z,4.92
2023-01-29T14:19:49.719Z,4.33
2023-01-29T14:20:51.917Z,5.84
2023-01-29T14:21:54.304Z,5.59
2023-01-29T14:22:56.520Z,5.61
2023-01-29T14:23:58.929Z,4.37
2023-01-29T14:25:01.501Z,6.07
2023-01-29T14:26:04.032Z,4.62
2023-01-29T14:27:06.627Z,5.69
2023-01-29T14:28:10.368Z,4.10
2023-01-29T14:29:16.495Z,3.84
2023-01-29T14:30:17.143Z,4.59
2023-01-29T14:31:19.667Z,4.77
2023-01-29T14:32:22.122Z,4.60
2023-01-29T14:33:24.736Z,4.47
2023-01-29T14:34:27.168Z,4.58
2023-01-29T14:35:29.676Z,3.57
2023-01-29T14:36:32.273Z,6.13
2023-01-29T14:37:35.189Z,6.37
2023-01-29T14:38:37.674Z,5.33
2023-01-29T14:39:40.164Z,4.57
2023-01-29T14:40:42.572Z,4.24
2023-01-29T14:41:45.146Z,4.38
2023-01-29T14:42:47.773Z,6.54
2023-01-29T14:43:50.231Z,5.65
2023-01-29T14:44:52.787Z,5.58
2023-01-29T14:45:55.376Z,4.53
2023-01-29T14:46:57.853Z,5.41
2023-01-29T14:48:00.556Z,3.85
2023-01-29T14:49:03.082Z,4.18
2023-01-29T14:50:05.606Z,4.06
2023-01-29T14:51:09.665Z,5.75
2023-01-29T14:52:12.130Z,4.96
2023-01-29T14:53:14.782Z,4.63
2023-01-29T14:54:17.203Z,3.11
2023-01-29T14:55:19.705Z,5.91
2023-01-29T14:56:22.068Z,4.09
2023-01-29T14:57:24.709Z,4.46
2023-01-29T14:58:27.358Z,3.62
2023-01-29T14:59:29.812Z,3.28
2023-01-29T15:00:32.278Z,5.85
2023-01-29T15:01:34.777Z,5.22
2023-01-29T15:02:37.318Z,5.42
2023-01-29T15:03:39.814Z,6.00
2023-01-29T15:04:42.300Z,4.35
2023-01-29T15:05:44.777Z,5.73
2023-01-29T15:06:47.286Z,5.62
2023-01-29T15:07:49.811Z,4.84
2023-01-29T15:08:52.417Z,5.12
2023-01-29T15:10:01.305Z,4.65
2023-01-29T15:10:58.934Z,3.89
2023-01-29T15:12:01.374Z,4.95
2023-01-29T15:13:03.961Z,5.95
2023-01-29T15:14:06.614Z,3.68
2023-01-29T15:15:09.023Z,5.21
2023-01-29T15:16:11.567Z,5.54
2023-01-29T15:17:14.211Z,5.77
2023-01-29T15:18:16.528Z,4.81
2023-01-29T15:19:18.743Z,3.71
2023-01-29T15:20:20.976Z,4.62
2023-01-29T15:21:23.239Z,5.18
2023-01-29T15:22:25.439Z,5.45
2023-01-29T15:23:27.663Z,6.44
2023-01-29T15:24:29.929Z,3.46
2023-01-29T15:25:32.227Z,5.08
2023-01-29T15:26:34.436Z,5.20
2023-01-29T15:27:36.597Z,5.02
2023-01-29T15:28:39.113Z,4.77
2023-01-29T15:29:41.751Z,3.97
2023-01-29T15:30:44.350Z,4.73
2023-01-29T15:31:47.903Z,4.34
2023-01-29T15:32:50.726Z,5.84
2023-01-29T15:33:53.248Z,4.47
2023-01-29T15:34:55.904Z,3.79
2023-01-29T15:36:06.861Z,3.81
2023-01-29T15:37:02.479Z,4.94
2023-01-29T15:38:04.908Z,5.38
2023-01-29T15:39:07.310Z,3.71
2023-01-29T15:40:09.761Z,4.21
2023-01-29T15:41:12.332Z,5.07
2023-01-29T15:42:14.839Z,5.18
2023-01-29T15:43:17.376Z,3.28
2023-01-29T15:44:19.940Z,3.62
2023-01-29T15:45:22.631Z,3.89
2023-01-29T15:46:25.105Z,4.48
2023-01-29T15:47:27.619Z,3.06
2023-01-29T15:48:32.766Z,3.85
2023-01-29T15:49:34.162Z,5.67
2023-01-29T15:50:36.809Z,7.24
2023-01-29T15:51:39.292Z,5.72
2023-01-29T15:52:41.801Z,5.07
2023-01-29T15:53:44.362Z,4.27
2023-01-29T15:54:46.843Z,4.47
2023-01-29T15:55:49.165Z,4.53
2023-01-29T15:56:51.616Z,4.32
2023-01-29T15:57:54.148Z,3.27
2023-01-29T15:58:56.716Z,4.55
2023-01-29T15:59:59.211Z,3.69
2023-01-29T16:01:01.714Z,4.73
2023-01-29T16:02:04.132Z,4.79
2023-01-29T16:03:06.623Z,4.28
2023-01-29T16:04:09.058Z,2.94
2023-01-29T16:05:11.481Z,3.77
2023-01-29T16:06:14.073Z,5.56
2023-01-29T16:07:16.562Z,3.57
2023-01-29T16:08:19.001Z,3.77
2023-01-29T16:09:21.478Z,4.58
2023-01-29T16:10:23.917Z,5.17
2023-01-29T16:11:26.548Z,4.82
2023-01-29T16:12:29.079Z,3.33
2023-01-29T16:13:31.613Z,4.40
2023-01-29T16:14:34.086Z,4.50
2023-01-29T16:15:36.543Z,3.47
2023-01-29T16:16:39.171Z,5.41
2023-01-29T16:17:41.537Z,5.62
2023-01-29T16:18:57.834Z,7.31
2023-01-29T16:19:48.242Z,6.39
2023-01-29T16:20:50.474Z,4.47
2023-01-29T16:21:52.715Z,5.09
2023-01-29T16:22:54.885Z,6.24
2023-01-29T16:23:57.117Z,6.78
2023-01-29T16:24:59.388Z,3.53
2023-01-29T16:26:01.638Z,4.87
2023-01-29T16:27:03.917Z,4.75
2023-01-29T16:28:06.084Z,5.82
2023-01-29T16:29:08.252Z,6.63
2023-01-29T16:30:10.636Z,4.60
2023-01-29T16:31:13.256Z,3.29
2023-01-29T16:32:15.858Z,5.47
2023-01-29T16:33:18.334Z,4.55
2023-01-29T16:34:20.759Z,5.49
2023-01-29T16:35:23.174Z,4.05
2023-01-29T16:36:25.628Z,3.55
2023-01-29T16:37:28.372Z,3.59
2023-01-29T16:38:30.887Z,3.62
2023-01-29T16:39:33.313Z,3.22
2023-01-29T16:40:35.781Z,4.82
2023-01-29T16:41:38.335Z,4.72
2023-01-29T16:42:40.922Z,3.99
2023-01-29T16:43:43.515Z,3.44
2023-01-29T16:44:45.961Z,3.77
2023-01-29T16:45:50.108Z,4.72
2023-01-29T16:46:52.634Z,7.54
2023-01-29T16:47:55.232Z,7.75
2023-01-29T16:48:57.600Z,5.83
2023-01-29T16:50:00.212Z,4.16
2023-01-29T16:51:02.649Z,6.33
2023-01-29T16:52:05.249Z,6.83
2023-01-29T16:53:07.945Z,6.97
2023-01-29T16:54:10.459Z,5.28
2023-01-29T16:55:12.866Z,5.82
2023-01-29T16:56:15.339Z,6.36
2023-01-29T16:57:17.940Z,5.54
2023-01-29T16:58:20.576Z,4.58
2023-01-29T16:59:22.984Z,2.72
2023-01-29T17:00:25.530Z,3.36
2023-01-29T17:01:27.964Z,5.70
2023-01-29T17:02:30.488Z,4.37
2023-01-29T17:03:33.331Z,4.50
2023-01-29T17:04:35.836Z,5.28
2023-01-29T17:05:38.383Z,5.37
2023-01-29T17:06:40.864Z,5.48
2023-01-29T17:07:43.476Z,5.46
2023-01-29T17:08:46.322Z,5.23
2023-01-29T17:09:48.785Z,4.21
2023-01-29T17:10:51.321Z,3.32
2023-01-29T17:11:53.778Z,3.65
2023-01-29T17:12:56.223Z,4.94
2023-01-29T17:13:58.873Z,5.90
2023-01-29T17:15:01.491Z,4.63
2023-01-29T17:16:04.018Z,6.72
2023-01-29T17:17:06.494Z,3.96
2023-01-29T17:18:08.923Z,5.00
2023-01-29T17:19:11.581Z,3.94
2023-01-29T17:20:14.193Z,3.82
2023-01-29T17:21:16.475Z,5.44
2023-01-29T17:22:18.991Z,4.22
2023-01-29T17:23:21.431Z,3.90
2023-01-29T17:24:24.065Z,4.18
2023-01-29T17:25:26.584Z,6.42
2023-01-29T17:26:29.139Z,4.60
2023-01-29T17:27:31.646Z,5.05
2023-01-29T17:28:34.061Z,6.06
2023-01-29T17:29:36.497Z,5.09
2023-01-29T17:30:38.724Z,5.60
2023-01-29T17:31:41.051Z,4.51
2023-01-29T17:32:45.044Z,3.58
2023-01-29T17:33:47.106Z,6.09
2023-01-29T17:34:49.631Z,4.57
2023-01-29T17:35:51.907Z,4.85
2023-01-29T17:36:54.200Z,5.90
2023-01-29T17:37:56.464Z,5.89
2023-01-29T17:38:58.647Z,5.13
2023-01-29T17:40:03.028Z,5.67
2023-01-29T17:41:05.193Z,5.16
2023-01-29T17:42:07.711Z,3.17
2023-01-29T17:43:10.175Z,4.79
2023-01-29T17:44:12.647Z,5.54
2023-01-29T17:45:15.679Z,4.35
2023-01-29T17:46:18.377Z,6.67
2023-01-29T17:47:21.088Z,4.69
2023-01-29T17:48:23.541Z,5.12
2023-01-29T17:49:25.931Z,4.44
2023-01-29T17:50:28.441Z,3.92
2023-01-29T17:51:31.014Z,3.82
2023-01-29T17:52:33.458Z,4.29
2023-01-29T17:53:45.308Z,3.37
2023-01-29T17:54:39.923Z,5.18
2023-01-29T17:55:42.538Z,4.83
2023-01-29T17:56:44.999Z,4.49
2023-01-29T17:57:47.637Z,4.03
2023-01-29T17:58:50.136Z,5.55
2023-01-29T17:59:52.597Z,5.45
2023-01-29T18:00:55.263Z,3.52
2023-01-29T18:01:57.883Z,4.31
2023-01-29T18:03:00.428Z,5.08
2023-01-29T18:04:03.037Z,5.22
2023-01-29T18:05:05.675Z,5.45
2023-01-29T18:06:08.558Z,5.98
2023-01-29T18:07:10.944Z,5.59
2023-01-29T18:08:13.379Z,4.46
2023-01-29T18:09:15.594Z,3.80
2023-01-29T18:10:18.047Z,6.97
2023-01-29T18:11:20.937Z,4.92
2023-01-29T18:12:23.437Z,5.92
2023-01-29T18:13:25.917Z,4.51
2023-01-29T18:14:28.423Z,6.85
2023-01-29T18:15:30.972Z,6.18
2023-01-29T18:16:33.555Z,5.97
2023-01-29T18:17:36.004Z,5.48
2023-01-29T18:18:38.487Z,6.76
2023-01-29T18:19:40.915Z,8.28
2023-01-29T18:20:43.531Z,9.35
2023-01-29T18:21:46.064Z,6.12
2023-01-29T18:22:48.537Z,5.91
2023-01-29T18:23:51.011Z,5.73
2023-01-29T18:24:53.519Z,6.51
2023-01-29T18:25:55.982Z,6.97
2023-01-29T18:26:58.298Z,8.43
2023-01-29T18:28:00.629Z,7.37
2023-01-29T18:29:03.268Z,8.57
2023-01-29T18:30:05.471Z,6.58
2023-01-29T18:31:07.717Z,7.24
2023-01-29T18:32:10.006Z,6.01
2023-01-29T18:33:12.191Z,8.78
2023-01-29T18:34:14.423Z,6.58
2023-01-29T18:35:17.026Z,8.38
2023-01-29T18:36:19.448Z,8.40
2023-01-29T18:37:21.683Z,8.02
2023-01-29T18:38:23.895Z,6.36
2023-01-29T18:39:26.057Z,6.37
2023-01-29T18:40:28.243Z,8.53
2023-01-29T18:41:30.695Z,8.35
2023-01-29T18:42:33.228Z,8.08
2023-01-29T18:43:35.747Z,5.88
2023-01-29T18:44:38.230Z,10.08
2023-01-29T18:45:40.784Z,6.52
2023-01-29T18:46:43.346Z,6.19
2023-01-29T18:47:46.017Z,7.05
2023-01-29T18:48:48.446Z,8.43
2023-01-29T18:49:50.683Z,6.65
2023-01-29T18:50:53.127Z,7.01
2023-01-29T18:51:55.688Z,9.32
2023-01-29T18:52:58.634Z,7.27
2023-01-29T18:54:01.156Z,9.10
2023-01-29T18:55:03.612Z,6.80
2023-01-29T18:56:06.089Z,6.65
2023-01-29T18:57:14.152Z,6.82
2023-01-29T18:58:29.555Z,7.44
2023-01-29T18:59:16.655Z,8.42
2023-01-29T19:00:19.445Z,5.28
2023-01-29T19:01:21.967Z,7.97
2023-01-29T19:02:24.496Z,6.59
2023-01-29T19:03:27.018Z,7.11
2023-01-29T19:04:29.859Z,9.18
2023-01-29T19:05:32.337Z,7.40
2023-01-29T19:06:36.557Z,7.54
2023-01-29T19:07:38.876Z,6.05
2023-01-29T19:08:41.459Z,10.03
2023-01-29T19:09:43.888Z,7.07
2023-01-29T19:10:49.461Z,6.81
2023-01-29T19:11:50.479Z,6.01
2023-01-29T19:12:52.944Z,5.26
2023-01-29T19:13:55.832Z,5.67
2023-01-29T19:14:58.260Z,7.82
2023-01-29T19:16:00.850Z,6.16
2023-01-29T19:17:03.379Z,7.46
2023-01-29T19:18:05.874Z,6.35
2023-01-29T19:19:08.476Z,7.03
2023-01-29T19:20:10.872Z,8.06
2023-01-29T19:21:13.334Z,9.59
2023-01-29T19:22:15.924Z,7.42
2023-01-29T19:23:18.330Z,10.12
2023-01-29T19:24:20.951Z,8.76
2023-01-29T19:25:23.409Z,9.89
2023-01-29T19:26:26.317Z,8.22
2023-01-29T19:27:31.826Z,8.58
2023-01-29T19:28:35.965Z,8.39
2023-01-29T19:29:38.751Z,7.69
2023-01-29T19:30:41.210Z,8.15
2023-01-29T19:31:43.742Z,7.53
2023-01-29T19:32:46.309Z,9.50
2023-01-29T19:33:48.730Z,8.78
2023-01-29T19:34:51.253Z,8.28
2023-01-29T19:35:53.654Z,8.27
2023-01-29T19:36:56.064Z,8.72
2023-01-29T19:37:58.488Z,7.81
2023-01-29T19:39:03.772Z,10.25
2023-01-29T19:40:06.369Z,8.61
2023-01-29T19:41:08.788Z,8.08
2023-01-29T19:42:10.966Z,9.02
2023-01-29T19:43:13.161Z,9.29
2023-01-29T19:44:15.376Z,8.65
2023-01-29T19:45:18.118Z,7.07
2023-01-29T19:46:21.551Z,7.44
2023-01-29T19:47:23.828Z,6.75
2023-01-29T19:48:26.079Z,8.43
2023-01-29T19:49:28.278Z,8.78
2023-01-29T19:50:30.630Z,8.40
2023-01-29T19:51:32.848Z,7.91
2023-01-29T19:52:50.160Z,7.70
2023-01-29T19:53:39.107Z,11.70
2023-01-29T19:54:41.551Z,11.85
2023-01-29T19:55:44.147Z,11.93
2023-01-29T19:56:46.664Z,7.68
2023-01-29T19:57:49.151Z,10.53
2023-01-29T19:58:51.597Z,11.26
2023-01-29T19:59:54.022Z,12.17
2023-01-29T20:00:56.692Z,11.20
2023-01-29T20:01:59.233Z,10.87
2023-01-29T20:03:01.765Z,15.75
2023-01-29T20:04:04.317Z,10.85
2023-01-29T20:05:06.995Z,11.07
2023-01-29T20:06:09.686Z,11.29
2023-01-29T20:07:12.236Z,12.82
2023-01-29T20:08:14.716Z,12.21
2023-01-29T20:09:17.152Z,9.17
2023-01-29T20:10:20.059Z,12.21
2023-01-29T20:11:22.947Z,9.36
2023-01-29T20:12:25.420Z,10.44
2023-01-29T20:13:27.922Z,17.66
2023-01-29T20:14:30.388Z,14.10
2023-01-29T20:15:32.881Z,14.52
2023-01-29T20:16:35.388Z,15.09
2023-01-29T20:17:37.904Z,9.73
2023-01-29T20:18:40.362Z,11.52
2023-01-29T20:19:42.762Z,12.10
2023-01-29T20:20:45.260Z,11.85
2023-01-29T20:21:47.846Z,9.88
2023-01-29T20:22:50.294Z,9.58
2023-01-29T20:23:52.691Z,9.60
2023-01-29T20:24:55.105Z,8.22
2023-01-29T20:25:57.515Z,11.78
2023-01-29T20:27:00.113Z,10.32
2023-01-29T20:28:02.570Z,11.06
2023-01-29T20:29:05.081Z,11.00
2023-01-29T20:30:07.526Z,11.75
2023-01-29T20:31:10.039Z,10.72
2023-01-29T20:32:12.533Z,8.98
2023-01-29T20:33:15.084Z,7.18
2023-01-29T20:34:17.514Z,6.82
2023-01-29T20:35:19.975Z,7.74
2023-01-29T20:36:22.410Z,9.89
2023-01-29T20:37:25.044Z,11.03
2023-01-29T20:38:27.481Z,9.78
2023-01-29T20:39:29.768Z,9.38
2023-01-29T20:40:32.244Z,13.10
2023-01-29T20:41:34.766Z,14.12
2023-01-29T20:42:37.424Z,8.70
2023-01-29T20:43:39.902Z,9.39
2023-01-29T20:44:42.341Z,9.46
2023-01-29T20:45:44.884Z,11.31
2023-01-29T20:46:47.432Z,11.18
2023-01-29T20:47:49.904Z,12.73
2023-01-29T20:48:52.355Z,10.18
2023-01-29T20:49:54.785Z,10.11